createdAt,value
2019-04-07T00:02:25.120Z,20.13
2019-04-07T00:04:54.694Z,18.40
2019-04-07T00:07:24.282Z,16.73
2019-04-07T00:09:54.199Z,16.33
2019-04-07T00:12:24.276Z,16.80
2019-04-07T00:14:55.278Z,17.17
2019-04-07T00:17:25.115Z,17.70
2019-04-07T00:19:54.780Z,16.30
2019-04-07T00:22:26.211Z,16.57
2019-04-07T00:24:55.854Z,15.87
2019-04-07T00:27:25.723Z,16.70
2019-04-07T00:29:55.496Z,18.30
2019-04-07T00:32:25.022Z,17.77
2019-04-07T00:34:55.237Z,16.30
2019-04-07T00:37:26.367Z,16.80
2019-04-07T00:39:56.632Z,16.80
2019-04-07T00:42:27.405Z,17.33
2019-04-07T00:44:57.051Z,16.87
2019-04-07T00:47:26.645Z,16.83
2019-04-07T00:49:56.216Z,16.90
2019-04-07T00:52:25.786Z,16.83
2019-04-07T00:54:56.492Z,15.40
2019-04-07T00:57:26.390Z,16.30
2019-04-07T00:59:56.121Z,16.80
2019-04-07T01:02:26.027Z,16.57
2019-04-07T01:04:57.343Z,16.77
2019-04-07T01:07:26.929Z,17.30
2019-04-07T01:09:56.570Z,16.83
2019-04-07T01:12:27.049Z,17.83
2019-04-07T01:14:57.140Z,17.40
2019-04-07T01:17:26.943Z,17.33
2019-04-07T01:19:56.540Z,17.43
2019-04-07T01:22:26.592Z,18.00
2019-04-07T01:24:56.282Z,17.23
2019-04-07T01:27:25.910Z,18.53
2019-04-07T01:29:55.417Z,18.20
2019-04-07T01:32:25.781Z,18.63
2019-04-07T01:34:55.904Z,19.23
2019-04-07T01:37:25.508Z,18.90
2019-04-07T01:39:55.110Z,19.63
2019-04-07T01:42:32.302Z,20.10
2019-04-07T01:45:20.518Z,19.50
2019-04-07T01:47:52.307Z,19.70
2019-04-07T01:50:23.295Z,19.27
2019-04-07T01:52:57.199Z,19.00
2019-04-07T01:55:26.862Z,19.57
2019-04-07T01:58:10.799Z,19.57
2019-04-07T02:01:00.401Z,19.43
2019-04-07T02:03:48.411Z,18.17
2019-04-07T02:06:19.873Z,18.53
2019-04-07T02:09:07.150Z,19.57
2019-04-07T02:11:38.632Z,17.57
2019-04-07T02:14:10.169Z,17.60
2019-04-07T02:16:50.156Z,18.10
2019-04-07T02:19:22.608Z,17.53
2019-04-07T02:21:58.360Z,17.63
2019-04-07T02:24:38.863Z,19.20
2019-04-07T02:27:16.425Z,19.53
2019-04-07T02:29:47.820Z,18.63
2019-04-07T02:32:21.569Z,17.63
2019-04-07T02:35:08.970Z,17.23
2019-04-07T02:37:40.984Z,18.57
2019-04-07T02:40:14.252Z,16.87
2019-04-07T02:42:48.704Z,16.90
2019-04-07T02:45:19.991Z,16.97
2019-04-07T02:48:10.740Z,17.17
2019-04-07T02:50:57.258Z,16.57
2019-04-07T02:53:30.867Z,17.33
2019-04-07T02:56:18.407Z,17.20
2019-04-07T02:58:47.905Z,17.47
2019-04-07T03:01:22.091Z,15.73
2019-04-07T03:06:45.790Z,16.50
2019-04-07T03:09:28.149Z,16.90
2019-04-07T03:12:15.483Z,15.63
2019-04-07T03:14:55.948Z,15.97
2019-04-07T03:17:43.694Z,15.93
2019-04-07T03:20:13.325Z,16.13
2019-04-07T03:23:01.900Z,17.03
2019-04-07T03:25:37.128Z,16.00
2019-04-07T03:28:10.861Z,16.43
2019-04-07T03:30:45.405Z,16.03
2019-04-07T03:33:32.495Z,16.40
2019-04-07T03:36:06.718Z,16.30
2019-04-07T03:38:41.194Z,16.40
2019-04-07T03:41:14.052Z,16.90
2019-04-07T03:43:46.336Z,17.63
2019-04-07T03:46:23.337Z,16.90
2019-04-07T03:48:53.641Z,16.33
2019-04-07T03:51:24.977Z,16.80
2019-04-07T03:53:59.408Z,16.10
2019-04-07T03:56:30.789Z,16.07
2019-04-07T03:59:01.982Z,16.93
2019-04-07T04:01:33.701Z,15.80
2019-04-07T04:04:05.669Z,15.73
2019-04-07T04:06:53.408Z,16.00
2019-04-07T04:09:40.754Z,16.40
2019-04-07T04:12:13.616Z,15.17
2019-04-07T04:14:51.048Z,15.80
2019-04-07T04:17:22.943Z,16.17
2019-04-07T04:19:52.644Z,15.47
2019-04-07T04:22:22.975Z,15.80
2019-04-07T04:24:53.487Z,16.73
2019-04-07T04:27:23.821Z,15.40
2019-04-07T04:29:55.215Z,14.40
2019-04-07T04:32:25.560Z,15.37
2019-04-07T04:34:55.204Z,13.97
2019-04-07T04:37:36.058Z,14.77
2019-04-07T04:39:56.147Z,15.10
2019-04-07T04:42:26.654Z,15.07
2019-04-07T04:44:56.401Z,15.50
2019-04-07T04:47:26.000Z,15.53
2019-04-07T04:49:57.492Z,16.80
2019-04-07T04:52:27.750Z,15.17
2019-04-07T04:54:57.495Z,15.77
2019-04-07T04:57:27.170Z,16.73
2019-04-07T04:59:56.809Z,16.70
2019-04-07T05:02:27.540Z,16.40
2019-04-07T05:04:57.521Z,17.03
2019-04-07T05:07:27.050Z,16.93
2019-04-07T05:09:56.827Z,18.10
2019-04-07T05:12:26.488Z,16.27
2019-04-07T05:14:56.164Z,15.37
2019-04-07T05:17:26.023Z,16.47
2019-04-07T05:19:56.535Z,17.03
2019-04-07T05:22:26.749Z,17.43
2019-04-07T05:24:56.729Z,16.43
2019-04-07T05:27:26.275Z,16.70
2019-04-07T05:29:55.850Z,15.80
2019-04-07T05:32:25.434Z,15.37
2019-04-07T05:34:55.624Z,15.70
2019-04-07T05:37:25.343Z,16.53
2019-04-07T05:39:55.047Z,16.63
2019-04-07T05:42:24.675Z,16.07
2019-04-07T05:44:55.246Z,16.73
2019-04-07T05:47:25.500Z,15.63
2019-04-07T05:49:58.489Z,16.40
2019-04-07T05:52:27.193Z,16.30
2019-04-07T05:54:58.977Z,16.87
2019-04-07T05:57:32.517Z,16.70
2019-04-07T06:00:00.419Z,16.23
2019-04-07T06:02:33.367Z,16.27
2019-04-07T06:05:01.311Z,14.93
2019-04-07T06:07:32.539Z,15.27
2019-04-07T06:10:02.440Z,16.03
2019-04-07T06:12:32.885Z,15.77
2019-04-07T06:15:02.438Z,14.83
2019-04-07T06:17:32.017Z,15.73
2019-04-07T06:20:01.623Z,16.10
2019-04-07T06:22:31.194Z,15.50
2019-04-07T06:25:02.749Z,16.70
2019-04-07T06:27:32.532Z,16.10
2019-04-07T06:30:02.487Z,16.63
2019-04-07T06:32:35.214Z,15.63
2019-04-07T06:35:05.370Z,15.67
2019-04-07T06:37:37.403Z,15.20
2019-04-07T06:40:08.115Z,15.70
2019-04-07T06:42:37.711Z,16.57
2019-04-07T06:45:10.928Z,14.20
2019-04-07T06:47:48.629Z,13.63
2019-04-07T06:50:31.447Z,13.83
2019-04-07T06:53:17.190Z,14.57
2019-04-07T06:56:04.121Z,12.83
2019-04-07T06:58:38.806Z,13.70
2019-04-07T07:01:17.495Z,12.27
2019-04-07T07:04:00.435Z,12.60
2019-04-07T07:06:49.431Z,12.00
2019-04-07T07:09:30.685Z,12.33
2019-04-07T07:12:02.060Z,11.40
2019-04-07T07:14:41.561Z,10.40
2019-04-07T07:17:05.436Z,11.80
2019-04-07T07:19:39.250Z,11.03
2019-04-07T07:22:22.404Z,10.17
2019-04-07T07:24:56.433Z,10.30
2019-04-07T07:27:25.094Z,10.90
2019-04-07T07:29:55.546Z,10.70
2019-04-07T07:32:25.900Z,10.00
2019-04-07T07:34:55.573Z,9.87
2019-04-07T07:37:26.191Z,9.90
2019-04-07T07:39:57.493Z,9.83
2019-04-07T07:42:27.711Z,9.27
2019-04-07T07:44:58.287Z,8.23
2019-04-07T07:47:27.863Z,8.80
2019-04-07T07:49:58.644Z,8.23
2019-04-07T07:52:28.732Z,9.10
2019-04-07T07:55:00.917Z,8.30
2019-04-07T07:57:30.497Z,19.60
2019-04-07T08:00:00.434Z,8.77
2019-04-07T08:02:31.907Z,8.93
2019-04-07T08:05:01.848Z,8.40
2019-04-07T08:07:31.559Z,8.97
2019-04-07T08:10:01.500Z,8.50
2019-04-07T08:12:34.292Z,9.00
2019-04-07T08:15:03.117Z,8.77
2019-04-07T08:17:33.900Z,8.37
2019-04-07T08:20:04.583Z,8.20
2019-04-07T08:22:40.629Z,9.20
2019-04-07T08:25:07.059Z,8.03
2019-04-07T08:27:36.621Z,7.80
2019-04-07T08:30:11.822Z,8.23
2019-04-07T08:32:41.173Z,7.70
2019-04-07T08:35:10.877Z,7.37
2019-04-07T08:37:40.615Z,7.80
2019-04-07T08:40:10.884Z,7.37
2019-04-07T08:42:41.176Z,6.83
2019-04-07T08:45:11.507Z,8.07
2019-04-07T08:47:41.090Z,7.57
2019-04-07T08:50:10.866Z,7.83
2019-04-07T08:52:42.490Z,8.07
2019-04-07T08:55:12.812Z,8.67
2019-04-07T08:57:42.503Z,7.90
2019-04-07T09:00:21.968Z,8.10
2019-04-07T09:03:01.828Z,7.57
2019-04-07T09:05:27.647Z,8.17
2019-04-07T09:07:55.034Z,8.00
2019-04-07T09:10:42.025Z,6.90
2019-04-07T09:13:12.134Z,6.20
2019-04-07T09:15:44.115Z,7.07
2019-04-07T09:18:18.012Z,7.27
2019-04-07T09:21:05.100Z,7.43
2019-04-07T09:23:42.580Z,6.67
2019-04-07T09:26:21.739Z,7.13
2019-04-07T09:29:08.521Z,8.00
2019-04-07T09:31:41.038Z,7.40
2019-04-07T09:34:12.872Z,8.27
2019-04-07T09:36:50.118Z,55.57
2019-04-07T09:39:50.733Z,9.53
2019-04-07T09:42:05.349Z,15.17
2019-04-07T09:44:50.635Z,8.47
2019-04-07T09:47:34.707Z,8.27
2019-04-07T09:50:26.780Z,7.73
2019-04-07T09:52:54.850Z,8.00
2019-04-07T09:55:26.580Z,7.73
2019-04-07T09:58:13.475Z,8.00
2019-04-07T10:00:42.823Z,10.50
2019-04-07T10:03:15.424Z,7.07
2019-04-07T10:06:01.710Z,7.97
2019-04-07T10:08:40.607Z,7.77
2019-04-07T10:11:14.742Z,7.17
2019-04-07T10:13:46.386Z,7.23
2019-04-07T10:16:18.556Z,8.03
2019-04-07T10:18:50.961Z,6.97
2019-04-07T10:21:22.156Z,7.00
2019-04-07T10:24:08.704Z,5.60
2019-04-07T10:26:39.907Z,6.00
2019-04-07T10:29:20.543Z,5.53
2019-04-07T10:31:56.597Z,5.30
2019-04-07T10:34:28.634Z,5.77
2019-04-07T10:37:04.794Z,5.50
2019-04-07T10:39:48.311Z,5.43
2019-04-07T10:42:22.048Z,5.40
2019-04-07T10:44:53.768Z,5.00
2019-04-07T10:47:27.992Z,5.67
2019-04-07T10:50:15.407Z,5.77
2019-04-07T10:52:46.996Z,5.20
2019-04-07T10:55:37.941Z,5.10
2019-04-07T10:58:07.357Z,4.70
2019-04-07T11:00:42.484Z,5.50
2019-04-07T11:03:14.234Z,4.40
2019-04-07T11:05:49.364Z,4.23
2019-04-07T11:08:23.396Z,4.50
2019-04-07T11:11:03.464Z,3.80
2019-04-07T11:13:40.430Z,3.80
2019-04-07T11:16:15.840Z,4.50
2019-04-07T11:19:03.375Z,3.70
2019-04-07T11:21:43.439Z,4.03
2019-04-07T11:24:18.802Z,3.77
2019-04-07T11:26:56.820Z,3.60
2019-04-07T11:29:39.150Z,3.87
2019-04-07T11:32:10.291Z,4.03
2019-04-07T11:34:41.759Z,4.30
2019-04-07T11:37:21.945Z,4.20
2019-04-07T11:40:06.280Z,4.57
2019-04-07T11:42:46.502Z,3.90
2019-04-07T11:45:21.030Z,4.30
2019-04-07T11:48:08.674Z,4.23
2019-04-07T11:50:42.387Z,4.57
2019-04-07T11:53:21.210Z,4.30
2019-04-07T11:55:55.079Z,4.37
2019-04-07T11:58:36.196Z,4.50
2019-04-07T12:01:19.517Z,3.53
2019-04-07T12:03:54.721Z,3.80
2019-04-07T12:06:30.327Z,4.10
2019-04-07T12:09:00.984Z,4.07
2019-04-07T12:11:46.358Z,3.80
2019-04-07T12:14:29.455Z,4.10
2019-04-07T12:17:06.984Z,3.63
2019-04-07T12:19:39.751Z,3.60
2019-04-07T12:22:13.137Z,3.80
2019-04-07T12:24:45.610Z,3.50
2019-04-07T12:27:31.831Z,5.50
2019-04-07T12:30:03.034Z,3.47
2019-04-07T12:32:50.854Z,3.57
2019-04-07T12:35:32.581Z,3.77
2019-04-07T12:38:12.534Z,4.10
2019-04-07T12:41:14.351Z,3.40
2019-04-07T12:43:45.836Z,3.50
2019-04-07T12:46:16.546Z,3.23
2019-04-07T12:48:50.331Z,3.23
2019-04-07T12:51:27.702Z,3.37
2019-04-07T12:54:09.213Z,3.80
2019-04-07T12:56:45.642Z,3.53
2019-04-07T12:59:19.195Z,3.50
2019-04-07T13:01:50.988Z,3.67
2019-04-07T13:04:31.801Z,3.80
2019-04-07T13:07:03.485Z,6.53
2019-04-07T13:09:37.421Z,3.70
2019-04-07T13:12:11.856Z,3.23
2019-04-07T13:14:43.987Z,3.30
2019-04-07T13:17:25.004Z,3.27
2019-04-07T13:19:59.075Z,3.77
2019-04-07T13:22:36.475Z,3.27
2019-04-07T13:25:22.590Z,3.40
2019-04-07T13:27:56.669Z,3.83
2019-04-07T13:30:44.471Z,3.23
2019-04-07T13:33:16.437Z,3.03
2019-04-07T13:35:53.513Z,4.90
2019-04-07T13:38:27.188Z,3.07
2019-04-07T13:41:04.097Z,3.20
2019-04-07T13:43:42.317Z,2.73
2019-04-07T13:46:22.219Z,3.33
2019-04-07T13:49:08.416Z,2.80
2019-04-07T13:51:37.711Z,2.67
2019-04-07T13:54:29.594Z,2.87
2019-04-07T13:57:16.633Z,2.90
2019-04-07T14:00:04.133Z,2.90
2019-04-07T14:02:33.759Z,3.20
2019-04-07T14:05:21.230Z,2.90
2019-04-07T14:07:58.897Z,2.80
2019-04-07T14:10:36.957Z,2.40
2019-04-07T14:13:07.626Z,2.80
2019-04-07T14:15:53.991Z,4.70
2019-04-07T14:18:32.038Z,2.60
2019-04-07T14:21:04.003Z,2.43
2019-04-07T14:23:52.159Z,2.80
2019-04-07T14:26:25.815Z,2.40
2019-04-07T14:29:13.175Z,2.60
2019-04-07T14:31:44.460Z,2.30
2019-04-07T14:34:27.415Z,2.30
2019-04-07T14:37:00.026Z,2.43
2019-04-07T14:39:39.064Z,2.17
2019-04-07T14:42:27.398Z,2.40
2019-04-07T14:45:07.798Z,2.40
2019-04-07T14:47:39.019Z,1.98
2019-04-07T14:50:23.218Z,1.75
2019-04-07T14:53:03.218Z,1.75
2019-04-07T14:55:41.147Z,2.00
2019-04-07T14:58:29.180Z,2.20
2019-04-07T15:01:10.742Z,7.10
2019-04-07T15:03:40.653Z,6.20
2019-04-07T15:06:10.924Z,3.05
2019-04-07T15:08:43.217Z,2.30
2019-04-07T15:11:22.025Z,4.33
2019-04-07T15:13:51.809Z,3.33
2019-04-07T15:16:22.780Z,2.42
2019-04-07T15:18:53.348Z,2.27
2019-04-07T15:21:23.873Z,1.72
2019-04-07T15:23:53.467Z,2.05
2019-04-07T15:26:23.596Z,5.87
2019-04-07T15:28:53.297Z,1.85
2019-04-07T15:31:23.148Z,1.90
2019-04-07T15:33:52.806Z,2.12
2019-04-07T15:36:23.209Z,1.57
2019-04-07T15:38:55.405Z,2.47
2019-04-07T15:41:24.125Z,2.90
2019-04-07T15:43:55.171Z,2.60
2019-04-07T15:46:25.670Z,2.30
2019-04-07T15:48:56.693Z,1.90
2019-04-07T15:51:26.682Z,1.77
2019-04-07T15:53:56.559Z,1.87
2019-04-07T15:56:27.081Z,2.17
2019-04-07T15:59:00.063Z,1.60
2019-04-07T16:01:28.977Z,1.60
2019-04-07T16:03:59.206Z,1.92
2019-04-07T16:06:28.849Z,1.70
2019-04-07T16:09:00.200Z,1.77
2019-04-07T16:11:30.731Z,1.70
2019-04-07T16:14:00.349Z,1.82
2019-04-07T16:16:30.755Z,1.82
2019-04-07T16:19:01.207Z,1.90
2019-04-07T16:21:33.118Z,1.35
2019-04-07T16:24:02.935Z,2.22
2019-04-07T16:26:35.730Z,4.40
2019-04-07T16:29:03.769Z,15.72
2019-04-07T16:31:33.382Z,3.05
2019-04-07T16:34:05.765Z,1.98
2019-04-07T16:36:35.176Z,2.60
2019-04-07T16:39:09.597Z,2.13
2019-04-07T16:41:39.343Z,2.37
2019-04-07T16:44:10.565Z,3.50
2019-04-07T16:46:40.191Z,2.50
2019-04-07T16:49:11.515Z,4.10
2019-04-07T16:51:41.065Z,3.47
2019-04-07T16:54:11.782Z,2.43
2019-04-07T16:56:41.457Z,1.83
2019-04-07T16:59:11.012Z,1.97
2019-04-07T17:01:42.282Z,1.80
2019-04-07T17:04:12.662Z,1.60
2019-04-07T17:06:42.267Z,2.13
2019-04-07T17:09:23.073Z,2.20
2019-04-07T17:11:51.558Z,2.10
2019-04-07T17:14:21.230Z,5.03
2019-04-07T17:16:50.384Z,3.23
2019-04-07T17:19:20.135Z,2.00
2019-04-07T17:21:50.131Z,2.10
2019-04-07T17:24:19.758Z,2.23
2019-04-07T17:26:49.786Z,2.50
2019-04-07T17:29:21.403Z,2.33
2019-04-07T17:31:50.884Z,4.97
2019-04-07T17:34:20.588Z,5.23
2019-04-07T17:36:55.371Z,2.53
2019-04-07T17:39:24.589Z,2.97
2019-04-07T17:41:57.234Z,2.60
2019-04-07T17:44:47.909Z,4.17
2019-04-07T17:47:31.196Z,5.97
2019-04-07T17:50:00.969Z,2.87
2019-04-07T17:52:48.235Z,2.67
2019-04-07T17:55:26.068Z,2.90
2019-04-07T17:57:55.296Z,4.33
2019-04-07T18:00:43.352Z,4.77
2019-04-07T18:03:31.380Z,4.50
2019-04-07T18:06:06.251Z,4.23
2019-04-07T18:09:03.982Z,4.27
2019-04-07T18:11:35.690Z,3.67
2019-04-07T18:14:05.771Z,3.37
2019-04-07T18:16:37.822Z,2.77
2019-04-07T18:19:09.764Z,3.30
2019-04-07T18:21:51.934Z,3.87
2019-04-07T18:24:30.098Z,3.83
2019-04-07T18:27:12.583Z,3.07
2019-04-07T18:29:41.731Z,3.63
2019-04-07T18:32:13.350Z,3.73
2019-04-07T18:34:45.062Z,3.40
2019-04-07T18:37:16.897Z,3.13
2019-04-07T18:39:55.045Z,3.43
2019-04-07T18:42:36.110Z,5.83
2019-04-07T18:45:21.895Z,4.37
2019-04-07T18:48:09.304Z,4.00
2019-04-07T18:50:48.149Z,4.30
2019-04-07T18:53:20.605Z,4.53
2019-04-07T18:55:54.277Z,4.50
2019-04-07T18:58:31.507Z,4.90
2019-04-07T19:01:14.695Z,7.10
2019-04-07T19:03:44.037Z,4.93
2019-04-07T19:06:20.152Z,4.27
2019-04-07T19:09:01.462Z,4.70
2019-04-07T19:11:49.849Z,4.93
2019-04-07T19:14:38.026Z,4.57
2019-04-07T19:17:00.770Z,4.73
2019-04-07T19:19:37.513Z,4.93
2019-04-07T19:22:11.410Z,4.77
2019-04-07T19:24:43.902Z,4.87
2019-04-07T19:27:31.773Z,4.13
2019-04-07T19:30:11.592Z,4.80
2019-04-07T19:32:57.915Z,5.00
2019-04-07T19:35:43.234Z,5.30
2019-04-07T19:38:30.120Z,5.47
2019-04-07T19:41:01.473Z,5.00
2019-04-07T19:43:53.164Z,5.50
2019-04-07T19:46:29.459Z,6.20
2019-04-07T19:49:01.170Z,6.60
2019-04-07T19:51:35.291Z,6.07
2019-04-07T19:54:23.571Z,5.47
2019-04-07T19:57:11.237Z,6.03
2019-04-07T19:59:48.513Z,5.93
2019-04-07T20:02:30.524Z,5.50
2019-04-07T20:05:18.473Z,4.90
2019-04-07T20:07:46.258Z,5.50
2019-04-07T20:10:21.530Z,6.53
2019-04-07T20:13:10.054Z,6.20
2019-04-07T20:15:57.816Z,6.40
2019-04-07T20:18:29.546Z,5.80
2019-04-07T20:21:02.977Z,6.13
2019-04-07T20:23:33.498Z,6.73
2019-04-07T20:26:08.397Z,8.10
2019-04-07T20:28:41.996Z,7.90
2019-04-07T20:31:22.489Z,7.53
2019-04-07T20:34:08.515Z,6.83
2019-04-07T20:36:54.916Z,8.13
2019-04-07T20:39:39.984Z,9.40
2019-04-07T20:42:27.468Z,9.27
2019-04-07T20:45:02.418Z,9.97
2019-04-07T20:47:32.514Z,9.83
2019-04-07T20:50:19.973Z,10.43
2019-04-07T20:53:08.372Z,10.50
2019-04-07T20:55:30.890Z,11.57
2019-04-07T20:58:16.058Z,11.17
2019-04-07T21:00:37.278Z,11.40
2019-04-07T21:03:25.201Z,12.33
2019-04-07T21:06:14.682Z,12.57
2019-04-07T21:08:48.796Z,13.37
2019-04-07T21:11:29.118Z,13.30
2019-04-07T21:14:00.861Z,13.93
2019-04-07T21:16:34.973Z,13.20
2019-04-07T21:19:13.397Z,14.07
2019-04-07T21:21:50.550Z,16.07
2019-04-07T21:24:21.772Z,14.47
2019-04-07T21:27:10.755Z,15.63
2019-04-07T21:29:47.715Z,15.23
2019-04-07T21:32:22.755Z,14.20
2019-04-07T21:35:03.160Z,17.23
2019-04-07T21:37:40.699Z,16.90
2019-04-07T21:40:14.322Z,17.53
2019-04-07T21:43:02.671Z,17.33
2019-04-07T21:45:41.120Z,18.87
2019-04-07T21:48:28.695Z,15.67
2019-04-07T21:51:00.235Z,18.33
2019-04-07T21:53:36.875Z,19.87
2019-04-07T21:56:24.150Z,19.93
2019-04-07T21:59:13.983Z,18.97
2019-04-07T22:01:57.346Z,21.97
2019-04-07T22:04:36.159Z,19.97
2019-04-07T22:07:07.471Z,30.40
2019-04-07T22:09:38.691Z,24.03
2019-04-07T22:12:08.512Z,23.27
2019-04-07T22:14:40.893Z,22.43
2019-04-07T22:17:09.491Z,23.83
2019-04-07T22:19:44.116Z,25.10
2019-04-07T22:22:10.874Z,25.07
2019-04-07T22:24:40.508Z,25.13
2019-04-07T22:27:10.089Z,27.90
2019-04-07T22:29:39.698Z,26.97
2019-04-07T22:32:09.238Z,26.27
2019-04-07T22:34:38.921Z,25.77
2019-04-07T22:37:08.469Z,25.93
2019-04-07T22:39:39.761Z,27.07
2019-04-07T22:42:12.783Z,26.07
2019-04-07T22:44:40.702Z,24.77
2019-04-07T22:47:13.085Z,24.80
2019-04-07T22:49:41.646Z,23.60
2019-04-07T22:52:11.777Z,22.23
2019-04-07T22:54:42.227Z,22.00
2019-04-07T22:57:14.424Z,21.60
2019-04-07T22:59:43.178Z,19.50
2019-04-07T23:02:13.674Z,20.83
2019-04-07T23:04:43.322Z,20.60
2019-04-07T23:07:13.615Z,17.47
2019-04-07T23:09:43.489Z,16.13
2019-04-07T23:12:13.020Z,18.13
2019-04-07T23:14:42.590Z,18.90
2019-04-07T23:17:12.156Z,17.63
2019-04-07T23:19:41.980Z,17.67
2019-04-07T23:22:11.874Z,17.93
2019-04-07T23:24:41.531Z,16.87
2019-04-07T23:27:11.154Z,16.53
2019-04-07T23:29:40.716Z,17.13
2019-04-07T23:32:10.299Z,15.47
2019-04-07T23:34:41.525Z,16.20
2019-04-07T23:37:12.738Z,15.00
2019-04-07T23:39:42.317Z,14.40
2019-04-07T23:42:12.571Z,15.97
2019-04-07T23:44:42.274Z,15.47
2019-04-07T23:47:11.924Z,15.67
2019-04-07T23:49:42.651Z,16.57
2019-04-07T23:52:12.276Z,15.47
2019-04-07T23:54:43.094Z,15.63
2019-04-07T23:57:13.434Z,15.10
2019-04-07T23:59:43.021Z,15.77
